»·PEaware :: AAL6295 KPHX-KABQ

AAL6295 :: KPHX-KABQ

FLIGHT INFORMATION

Flight Status: Arrived
Operator:
American Airlines
More flights by this operator :: More flights under this callsign
Pilot: Antonio A. (14008)
Aircraft: CANADAIR CL-600 CRJ-700
(CRJ7)
More flights by this aircraft type
Origin: KPHX Phoenix Sky Harbor Intl
United States
Destination: KABQ Albuquerque Intl Sunport
United States
More flights between these airports :: More routes between these airports
Route: +LALUZ5 SJN CABNO KRKEE3
File this flight plan on PilotEdge
Remarks:
Altitude:
(Current/Filed)
250ft
Speed:
(Current/Filed)
330kts
Departed: 27-Sep-17 11:32 AM
Arrived: 27-Sep-17 12:23 PM
Distance/Time
Traveled:
285nm/0:51
Distance/Time
To Go:
Arrived

Flight Plot

Page will automatically refresh every two minutes.

Flight plan parsing failed; only flown route is shown


Map Options




Map Legend


Flown Route
Filed Route
Departure Airport
Arrival Airport
Navaid (VOR, NDB)
Fix

Horizontal Profiles

Position Reports

Time Latitude Longitude Heading Altitude Ground
Speed
27-Sep-17 11:09 33.433080 -112.013603 357 1142ft 0kts
27-Sep-17 11:10 33.433080 -112.013603 357 1142ft 0kts
27-Sep-17 11:11 33.433080 -112.013603 357 1142ft 0kts
27-Sep-17 11:12 33.433080 -112.013603 357 1142ft 0kts
27-Sep-17 11:13 33.433080 -112.013603 357 1142ft 0kts
27-Sep-17 11:14 33.433080 -112.013603 357 1142ft 0kts
27-Sep-17 11:15 33.433080 -112.013603 357 1142ft 0kts
27-Sep-17 11:16 33.433080 -112.013603 357 1142ft 0kts
27-Sep-17 11:17 33.433080 -112.013603 357 1142ft 0kts
27-Sep-17 11:18 33.433080 -112.013603 357 1142ft 0kts
27-Sep-17 11:19 33.433080 -112.013603 357 1142ft 0kts
27-Sep-17 11:20 33.433080 -112.013603 357 1142ft 0kts
27-Sep-17 11:21 33.433080 -112.013603 357 1142ft 0kts
27-Sep-17 11:22 33.433080 -112.013603 357 1142ft 0kts
27-Sep-17 11:23 33.433080 -112.013603 357 1142ft 0kts
27-Sep-17 11:24 33.433080 -112.013603 357 1142ft 0kts
27-Sep-17 11:25 33.433080 -112.013603 357 1142ft 0kts
27-Sep-17 11:26 33.433080 -112.013603 357 1142ft 0kts
27-Sep-17 11:27 33.432546 -112.013578 357 1142ft 0kts
27-Sep-17 11:28 33.432546 -112.013578 357 1142ft 0kts
27-Sep-17 11:29 33.432550 -112.013578 357 1142ft 0kts
27-Sep-17 11:30 33.432613 -112.013569 11 1142ft 6kts
27-Sep-17 11:31 33.432180 -112.009677 90 1142ft 18kts
27-Sep-17 11:32 33.432171 -112.003390 90 1142ft 16kts
27-Sep-17 11:33 33.432203 -111.996860 89 1142ft 17kts
27-Sep-17 11:34 33.431663 -111.993427 236 1142ft 0kts
27-Sep-17 11:35 33.431105 -111.994607 255 1142ft 20kts
27-Sep-17 11:36 33.430686 -112.038409 268 1790ft 251kts
27-Sep-17 11:37 33.429388 -112.118211 268 3246ft 252kts
27-Sep-17 11:38 33.447452 -112.195708 326 4672ft 268kts
27-Sep-17 11:39 33.520576 -112.183063 15 6656ft 277kts
27-Sep-17 11:40 33.597523 -112.167502 16 8657ft 286kts
27-Sep-17 11:41 33.653047 -112.122195 41 10342ft 295kts
27-Sep-17 11:42 33.714395 -112.046008 48 12369ft 332kts
27-Sep-17 11:43 33.742203 -111.923209 94 14718ft 343kts
27-Sep-17 11:44 33.736494 -111.826282 98 16395ft 353kts
27-Sep-17 11:45 33.726925 -111.707088 99 18400ft 364kts
27-Sep-17 11:46 33.716513 -111.580207 99 20412ft 396kts
27-Sep-17 11:47 33.705513 -111.444706 99 22417ft 416kts
27-Sep-17 11:48 33.694798 -111.303452 93 24411ft 436kts
27-Sep-17 11:49 33.726637 -111.154915 69 24995ft 491kts
27-Sep-17 11:50 33.781902 -111.000438 66 25003ft 506kts
27-Sep-17 11:51 33.838809 -110.845669 68 25018ft 506kts
27-Sep-17 11:52 33.894515 -110.690195 69 25047ft 506kts
27-Sep-17 11:53 33.949209 -110.533962 69 25086ft 504kts
27-Sep-17 11:54 34.002940 -110.378309 71 25107ft 503kts
27-Sep-17 11:55 34.056288 -110.222731 71 25179ft 499kts
27-Sep-17 11:56 34.109440 -110.068810 71 25193ft 497kts
27-Sep-17 11:57 34.162407 -109.915221 72 25204ft 495kts
27-Sep-17 11:58 34.215183 -109.761315 72 25196ft 495kts
27-Sep-17 11:59 34.265809 -109.607111 73 25180ft 493kts
27-Sep-17 12:00 34.318099 -109.453706 71 25166ft 494kts
27-Sep-17 12:01 34.371179 -109.300276 71 25156ft 493kts
27-Sep-17 12:02 34.421137 -109.146317 78 25167ft 488kts
27-Sep-17 12:03 34.447838 -108.986048 86 25168ft 482kts
27-Sep-17 12:04 34.466145 -108.825391 87 25178ft 481kts
27-Sep-17 12:05 34.484409 -108.664884 86 25201ft 481kts
27-Sep-17 12:06 34.504588 -108.504633 84 25042ft 471kts
27-Sep-17 12:07 34.528692 -108.360632 83 23373ft 410kts
27-Sep-17 12:08 34.551486 -108.229278 82 21692ft 390kts
27-Sep-17 12:09 34.572934 -108.103299 83 21259ft 376kts
27-Sep-17 12:10 34.593854 -107.978517 83 21262ft 379kts
27-Sep-17 12:11 34.614945 -107.852845 81 21269ft 381kts
27-Sep-17 12:12 34.653952 -107.733515 67 19749ft 369kts
27-Sep-17 12:13 34.699901 -107.626209 65 18141ft 350kts
27-Sep-17 12:14 34.744448 -107.523229 65 16529ft 337kts
27-Sep-17 12:15 34.787051 -107.423759 66 14924ft 326kts
27-Sep-17 12:16 34.827737 -107.328256 66 14003ft 308kts
27-Sep-17 12:17 34.867848 -107.232902 66 12188ft 314kts
27-Sep-17 12:18 34.906748 -107.140416 65 10192ft 300kts
27-Sep-17 12:19 34.940690 -107.060697 66 9985ft 242kts
27-Sep-17 12:20 34.971388 -106.985862 71 9668ft 255kts
27-Sep-17 12:21 34.994480 -106.905668 74 8146ft 240kts
27-Sep-17 12:22 35.013978 -106.832420 74 8000ft 222kts
27-Sep-17 12:23 35.033404 -106.759856 72 8003ft 220kts
27-Sep-17 12:24 35.045841 -106.703376 96 6739ft 144kts
27-Sep-17 12:25 35.044619 -106.657230 95 6025ft 132kts
27-Sep-17 12:26 35.044176 -106.612464 90 5364ft 119kts
27-Sep-17 12:27 35.044233 -106.604012 89 5362ft 21kts
27-Sep-17 12:28 35.045684 -106.603967 282 5362ft 17kts
27-Sep-17 12:29 35.045764 -106.610993 271 5362ft 24kts
27-Sep-17 12:30 35.046769 -106.614409 358 5362ft 0kts
27-Sep-17 12:31 35.046769 -106.614409 358 5362ft 0kts
27-Sep-17 12:32 35.046769 -106.614409 358 5362ft 0kts
27-Sep-17 12:33 35.046769 -106.614409 358 5362ft 0kts
27-Sep-17 12:34 35.046769 -106.614409 358 5362ft 0kts
27-Sep-17 12:35 35.046769 -106.614409 358 5362ft 0kts

Navigation Log

Ident Type
Flight plan parsing failed, navigation log unavailable